Time;durP1;ratioP1;P1;durP2;ratioP2;P2;SDS_P1;SDS_P2;PMS_P1;PMS_P2;Temp;Humidity;BMP_temperature;BMP_pressure;BME280_temperature;BME280_humidity;BME280_pressure;Samples;Min_cycle;Max_cycle;Signal;HPM_P1;HPM_P2
2023/07/31 00:01:28;;;;;;;11.50;4.28;;;15.90;99.90;;;;;;7286785;32;20119;-55
2023/07/31 00:05:30;;;;;;;9.77;4.53;;;15.80;99.90;;;;;;7282994;32;20187;-55
2023/07/31 00:09:35;;;;;;;11.60;4.78;;;15.80;99.90;;;;;;7285096;32;20320;-56
2023/07/31 00:13:36;;;;;;;11.50;4.28;;;15.80;99.90;;;;;;7285356;32;20218;-55
2023/07/31 00:17:38;;;;;;;12.60;4.87;;;15.90;99.90;;;;;;7294871;32;20187;-55
2023/07/31 00:21:40;;;;;;;12.52;5.05;;;15.80;99.90;;;;;;7286150;32;20470;-55
2023/07/31 00:25:42;;;;;;;10.80;4.37;;;15.80;99.90;;;;;;7279394;32;20218;-54
2023/07/31 00:29:44;;;;;;;11.25;5.18;;;15.80;99.90;;;;;;7283149;32;20145;-55
2023/07/31 00:33:45;;;;;;;11.32;4.45;;;15.80;99.90;;;;;;7292697;32;20119;-55
2023/07/31 00:37:47;;;;;;;13.90;4.85;;;15.80;99.90;;;;;;7281573;32;20169;-55
2023/07/31 00:41:49;;;;;;;14.57;5.00;;;15.90;99.90;;;;;;7278774;32;20096;-55
2023/07/31 00:45:50;;;;;;;15.30;4.60;;;15.90;99.90;;;;;;7279504;32;20572;-56
2023/07/31 00:49:52;;;;;;;12.13;4.65;;;15.90;99.90;;;;;;7290493;32;20222;-57
2023/07/31 00:53:55;;;;;;;12.68;4.40;;;16.00;99.90;;;;;;7288090;32;20553;-55
2023/07/31 00:57:57;;;;;;;9.30;4.37;;;15.90;99.90;;;;;;7281508;32;20196;-54
2023/07/31 01:01:59;;;;;;;13.07;4.80;;;15.90;99.90;;;;;;7278540;32;20143;-57
2023/07/31 01:06:35;;;;;;;10.75;4.22;;;15.90;99.90;;;;;;7282979;32;20137;-56
2023/07/31 01:10:46;;;;;;;15.38;4.68;;;15.90;99.90;;;;;;7279232;32;20127;-55
2023/07/31 01:15:02;;;;;;;19.00;4.93;;;15.90;99.90;;;;;;7288086;32;20122;-56
2023/07/31 01:19:06;;;;;;;13.32;4.22;;;15.90;99.90;;;;;;7274017;32;20533;-56
2023/07/31 01:23:39;;;;;;;15.50;4.05;;;15.90;99.90;;;;;;7288864;32;20100;-55
2023/07/31 01:27:49;;;;;;;13.23;4.35;;;15.90;99.90;;;;;;7282937;32;20232;-56
2023/07/31 01:31:55;;;;;;;12.90;4.70;;;15.90;99.90;;;;;;7282704;32;20532;-56
2023/07/31 01:35:57;;;;;;;13.00;4.45;;;15.90;99.90;;;;;;7281426;32;20781;-55
2023/07/31 01:39:59;;;;;;;11.25;3.92;;;15.90;99.90;;;;;;7277664;32;20125;-56
2023/07/31 01:44:00;;;;;;;11.65;4.43;;;15.90;99.90;;;;;;7279488;32;20355;-56
2023/07/31 01:48:02;;;;;;;13.70;4.50;;;15.90;99.90;;;;;;7282988;32;20249;-55
2023/07/31 01:52:04;;;;;;;11.45;3.97;;;15.90;99.90;;;;;;7282511;32;20169;-56
2023/07/31 01:56:06;;;;;;;13.75;4.28;;;15.90;99.90;;;;;;7277822;32;20107;-55
2023/07/31 02:00:08;;;;;;;12.35;5.40;;;15.90;99.90;;;;;;7280843;32;20088;-55
2023/07/31 02:04:10;;;;;;;11.48;4.10;;;15.90;99.90;;;;;;7278596;32;20104;-56
2023/07/31 02:08:12;;;;;;;11.10;4.05;;;15.90;99.90;;;;;;7278677;32;20214;-56
2023/07/31 02:12:14;;;;;;;11.63;4.10;;;15.90;99.90;;;;;;7278314;32;20100;-56
2023/07/31 02:16:16;;;;;;;12.27;4.00;;;15.90;99.90;;;;;;7284110;32;20104;-56
2023/07/31 02:20:17;;;;;;;12.65;4.43;;;15.90;99.90;;;;;;7279106;32;20104;-56
2023/07/31 02:24:19;;;;;;;11.98;4.43;;;15.90;99.90;;;;;;7283562;32;20130;-57
2023/07/31 02:28:24;;;;;;;12.93;4.70;;;15.90;99.90;;;;;;7279879;32;20148;-56
2023/07/31 02:32:26;;;;;;;11.55;4.57;;;15.90;99.90;;;;;;7287740;32;20705;-57
2023/07/31 02:36:28;;;;;;;14.68;4.15;;;15.90;99.90;;;;;;7277676;32;20480;-55
2023/07/31 02:40:29;;;;;;;12.75;4.85;;;15.90;99.90;;;;;;7280481;32;20096;-54
2023/07/31 02:44:31;;;;;;;15.70;4.35;;;16.00;99.90;;;;;;7282673;32;20100;-54
2023/07/31 02:48:33;;;;;;;20.10;4.10;;;16.00;99.90;;;;;;7286372;32;20180;-55
2023/07/31 02:52:34;;;;;;;14.93;4.82;;;16.00;99.90;;;;;;7288077;32;20132;-55
2023/07/31 02:56:36;;;;;;;10.93;4.28;;;16.00;99.90;;;;;;7283901;32;20233;-55
2023/07/31 03:00:43;;;;;;;15.18;4.62;;;16.00;99.90;;;;;;7284708;32;20518;-54
2023/07/31 03:04:45;;;;;;;15.20;4.32;;;16.10;99.90;;;;;;7282891;32;20123;-55
2023/07/31 03:08:46;;;;;;;12.90;4.95;;;16.00;99.90;;;;;;7282057;32;20226;-54
2023/07/31 03:12:48;;;;;;;9.88;4.28;;;16.10;99.90;;;;;;7288128;32;20100;-54
2023/07/31 03:16:50;;;;;;;13.23;4.12;;;16.10;99.90;;;;;;7287210;32;20266;-55
2023/07/31 03:20:51;;;;;;;11.35;4.07;;;16.10;99.90;;;;;;7286913;32;20142;-55
2023/07/31 03:24:53;;;;;;;11.00;4.12;;;16.30;99.90;;;;;;7280638;32;20535;-55
2023/07/31 03:28:55;;;;;;;9.98;3.97;;;16.20;99.90;;;;;;7281586;32;20108;-55
2023/07/31 03:32:57;;;;;;;9.55;3.72;;;16.20;99.90;;;;;;7285390;32;20578;-55
2023/07/31 03:36:59;;;;;;;11.65;4.20;;;16.30;99.90;;;;;;7282930;32;20101;-55
2023/07/31 03:41:02;;;;;;;18.40;4.75;;;16.30;99.90;;;;;;7283332;32;20176;-55
2023/07/31 03:45:04;;;;;;;14.68;4.65;;;16.30;99.90;;;;;;7288130;32;20603;-55
2023/07/31 03:49:06;;;;;;;14.00;5.05;;;16.30;99.90;;;;;;7282686;32;20187;-55
2023/07/31 03:53:07;;;;;;;10.98;3.95;;;16.30;99.90;;;;;;7286848;32;20222;-54
2023/07/31 03:57:09;;;;;;;14.23;4.50;;;16.30;99.90;;;;;;7281454;32;20644;-55
2023/07/31 04:01:11;;;;;;;14.60;4.70;;;16.30;99.90;;;;;;7280663;32;20153;-55
2023/07/31 04:05:13;;;;;;;12.05;4.10;;;16.30;99.90;;;;;;7279739;32;20225;-55
2023/07/31 04:09:14;;;;;;;9.43;4.35;;;16.40;99.90;;;;;;7282866;32;20533;-55
2023/07/31 04:13:16;;;;;;;8.65;4.00;;;16.40;99.90;;;;;;7287425;32;20454;-55
2023/07/31 04:17:18;;;;;;;13.77;4.07;;;16.40;99.90;;;;;;7281210;32;20165;-55
2023/07/31 04:21:20;;;;;;;12.55;4.37;;;16.40;99.90;;;;;;7291012;32;20571;-55
2023/07/31 04:25:21;;;;;;;13.40;4.10;;;16.40;99.90;;;;;;7283621;32;20253;-55
2023/07/31 04:29:24;;;;;;;9.57;4.55;;;16.40;99.90;;;;;;7290743;32;20195;-55
2023/07/31 04:33:25;;;;;;;8.65;4.40;;;16.50;99.90;;;;;;7287671;32;20179;-55
2023/07/31 04:37:27;;;;;;;10.82;4.75;;;16.40;99.90;;;;;;7290083;32;20528;-55
2023/07/31 04:41:29;;;;;;;9.32;4.00;;;16.40;99.90;;;;;;7286683;32;20112;-57
2023/07/31 04:45:30;;;;;;;13.68;4.57;;;16.40;99.90;;;;;;7286061;32;20269;-55
2023/07/31 04:49:32;;;;;;;7.85;4.00;;;16.40;99.90;;;;;;7280243;32;20156;-56
2023/07/31 04:53:34;;;;;;;11.82;4.15;;;16.50;99.90;;;;;;7283076;32;20099;-56
2023/07/31 04:57:36;;;;;;;14.60;4.35;;;16.50;99.90;;;;;;7279283;32;20104;-56
2023/07/31 05:01:38;;;;;;;8.52;4.55;;;16.50;99.90;;;;;;7283901;32;20545;-56
2023/07/31 05:05:40;;;;;;;17.08;4.80;;;16.60;99.90;;;;;;7276924;32;20139;-57
2023/07/31 05:09:41;;;;;;;11.30;4.87;;;16.60;99.90;;;;;;7280577;32;20119;-57
2023/07/31 05:13:43;;;;;;;9.88;4.78;;;16.50;99.90;;;;;;7283385;32;20213;-58
2023/07/31 05:17:45;;;;;;;12.00;4.50;;;16.60;99.90;;;;;;7278047;32;20126;-57
2023/07/31 05:21:47;;;;;;;8.13;4.57;;;16.60;99.90;;;;;;7288109;32;20104;-56
2023/07/31 05:25:48;;;;;;;8.73;4.43;;;16.70;99.90;;;;;;7278214;32;20265;-58
2023/07/31 05:29:50;;;;;;;7.65;4.18;;;16.60;99.90;;;;;;7277460;32;20097;-57
2023/07/31 05:33:52;;;;;;;10.45;4.78;;;16.70;99.90;;;;;;7278236;32;20103;-56
2023/07/31 05:37:53;;;;;;;9.32;4.70;;;16.70;99.90;;;;;;7287559;32;20199;-57
2023/07/31 05:41:55;;;;;;;10.75;4.53;;;16.70;99.90;;;;;;7283177;32;20175;-57
2023/07/31 05:45:57;;;;;;;11.63;4.78;;;16.70;99.90;;;;;;7275510;32;20124;-57
2023/07/31 05:49:59;;;;;;;8.70;4.28;;;16.80;99.90;;;;;;7284672;32;20126;-57
2023/07/31 05:54:00;;;;;;;9.63;4.18;;;16.80;99.90;;;;;;7281398;32;20187;-57
2023/07/31 05:58:02;;;;;;;9.95;4.53;;;16.80;99.90;;;;;;7279876;32;20127;-58
2023/07/31 06:02:04;;;;;;;7.97;4.07;;;16.80;99.90;;;;;;7280348;32;20254;-58
2023/07/31 06:06:06;;;;;;;9.82;4.97;;;16.90;99.90;;;;;;7280425;32;20723;-57
2023/07/31 06:10:08;;;;;;;11.48;4.30;;;16.90;99.90;;;;;;7280547;32;20206;-57
2023/07/31 06:14:10;;;;;;;10.02;4.62;;;16.80;99.90;;;;;;7284812;32;20182;-55
2023/07/31 06:18:11;;;;;;;8.25;4.25;;;16.90;99.90;;;;;;7281075;32;20281;-54
2023/07/31 06:22:13;;;;;;;7.30;4.18;;;16.90;99.90;;;;;;7289403;32;20100;-56
2023/07/31 06:26:15;;;;;;;9.68;4.80;;;16.80;99.90;;;;;;7277527;32;20104;-57
2023/07/31 06:30:16;;;;;;;7.40;4.12;;;16.80;99.90;;;;;;7284547;32;20166;-57
2023/07/31 06:34:18;;;;;;;8.80;4.60;;;16.70;99.90;;;;;;7278184;32;20848;-56
2023/07/31 06:38:24;;;;;;;8.15;4.62;;;16.70;99.90;;;;;;7285830;32;20616;-58
2023/07/31 06:42:26;;;;;;;10.00;4.47;;;16.60;99.90;;;;;;7283234;32;20222;-56
2023/07/31 06:46:27;;;;;;;8.07;4.30;;;16.60;99.90;;;;;;7277834;32;20108;-56
2023/07/31 06:50:33;;;;;;;10.07;4.32;;;16.50;99.90;;;;;;7282218;32;20315;-56
2023/07/31 06:54:34;;;;;;;8.32;4.70;;;16.40;99.90;;;;;;7281954;32;20696;-56
2023/07/31 06:58:36;;;;;;;7.68;4.03;;;16.50;99.90;;;;;;7284318;32;20100;-56
2023/07/31 07:02:38;;;;;;;7.78;3.92;;;16.50;99.90;;;;;;7280634;32;20201;-56
2023/07/31 07:06:40;;;;;;;7.93;4.05;;;16.60;99.90;;;;;;7284120;32;20231;-57
2023/07/31 07:10:42;;;;;;;9.07;3.55;;;16.60;99.90;;;;;;7284045;32;20121;-56
2023/07/31 07:14:45;;;;;;;12.43;4.62;;;16.50;99.90;;;;;;7283259;32;20108;-56
2023/07/31 07:18:47;;;;;;;6.78;3.92;;;16.50;99.90;;;;;;7286524;32;21018;-55
2023/07/31 07:23:05;;;;;;;9.07;4.53;;;16.50;99.90;;;;;;7284371;32;20514;-56
2023/07/31 07:27:07;;;;;;;10.65;5.00;;;16.50;99.90;;;;;;7280813;32;20104;-56
2023/07/31 07:31:08;;;;;;;8.40;4.12;;;16.40;99.90;;;;;;7281209;32;20502;-56
2023/07/31 07:35:11;;;;;;;11.52;4.30;;;16.40;99.90;;;;;;7281970;32;20539;-56
2023/07/31 07:39:13;;;;;;;9.07;4.50;;;16.30;99.90;;;;;;7280462;32;20119;-57
2023/07/31 07:43:14;;;;;;;11.48;4.97;;;16.30;99.90;;;;;;7286743;32;20705;-56
2023/07/31 07:47:16;;;;;;;11.55;4.97;;;16.30;99.90;;;;;;7283901;32;20099;-56
2023/07/31 07:51:18;;;;;;;9.43;4.70;;;16.30;99.90;;;;;;7280041;32;20495;-55
2023/07/31 07:55:19;;;;;;;12.30;4.47;;;16.40;99.90;;;;;;7282458;32;20218;-57
2023/07/31 07:59:21;;;;;;;7.80;4.57;;;16.30;99.90;;;;;;7283999;32;20178;-56
2023/07/31 08:03:23;;;;;;;8.70;4.43;;;16.30;99.90;;;;;;7281621;32;20131;-56
2023/07/31 08:07:25;;;;;;;10.38;4.53;;;16.40;99.90;;;;;;7285664;32;20128;-56
2023/07/31 08:11:27;;;;;;;7.95;3.42;;;16.40;99.90;;;;;;7283062;32;20237;-55
2023/07/31 08:15:28;;;;;;;8.48;3.72;;;16.40;99.90;;;;;;7269257;32;20487;-56
2023/07/31 08:19:30;;;;;;;7.22;3.40;;;16.40;99.90;;;;;;7283139;32;20738;-56
2023/07/31 08:23:32;;;;;;;9.50;4.55;;;16.40;99.90;;;;;;7284632;32;20187;-55
2023/07/31 08:27:34;;;;;;;9.30;3.72;;;16.40;99.90;;;;;;7280978;32;20127;-56
2023/07/31 08:31:36;;;;;;;5.82;3.40;;;16.50;99.90;;;;;;7285407;32;20143;-55
2023/07/31 08:35:37;;;;;;;12.15;3.87;;;16.50;99.90;;;;;;7285226;32;20131;-56
2023/07/31 08:39:39;;;;;;;5.82;3.12;;;16.40;99.90;;;;;;7281906;32;20108;-56
2023/07/31 08:43:42;;;;;;;5.32;3.30;;;16.40;99.90;;;;;;7279626;32;20127;-56
2023/07/31 08:47:49;;;;;;;8.00;3.92;;;16.40;99.90;;;;;;7279145;32;20122;-56
2023/07/31 08:51:53;;;;;;;6.18;3.60;;;16.40;99.90;;;;;;7278967;32;20139;-56
2023/07/31 08:55:58;;;;;;;6.62;3.33;;;16.60;99.90;;;;;;7280813;32;21025;-55
2023/07/31 09:00:00;;;;;;;5.18;3.33;;;16.40;99.90;;;;;;7282045;32;20103;-56
2023/07/31 09:04:04;;;;;;;8.48;3.28;;;16.40;99.90;;;;;;7281628;32;20147;-57
2023/07/31 09:08:08;;;;;;;5.53;3.17;;;16.40;99.90;;;;;;7282933;32;20212;-55
2023/07/31 09:12:10;;;;;;;7.28;3.45;;;16.40;99.90;;;;;;7287258;32;20209;-58
2023/07/31 09:16:12;;;;;;;7.55;3.65;;;16.30;99.90;;;;;;7283163;32;20709;-56
2023/07/31 09:20:19;;;;;;;7.68;3.95;;;16.40;99.90;;;;;;7285528;32;20119;-57
2023/07/31 09:24:30;;;;;;;7.55;3.65;;;16.40;99.90;;;;;;7281455;32;20139;-58
2023/07/31 09:28:31;;;;;;;5.30;3.37;;;16.40;99.90;;;;;;7281480;32;20107;-56
2023/07/31 09:32:33;;;;;;;5.43;3.33;;;16.40;99.90;;;;;;7285465;32;20145;-56
2023/07/31 09:36:46;;;;;;;6.80;3.08;;;16.30;99.90;;;;;;7280753;32;20203;-57
2023/07/31 09:40:49;;;;;;;6.45;3.80;;;16.40;99.90;;;;;;7283256;32;20840;-57
2023/07/31 09:44:50;;;;;;;4.78;3.53;;;16.40;99.90;;;;;;7281975;32;20108;-56
2023/07/31 09:48:52;;;;;;;7.20;3.37;;;16.40;99.90;;;;;;7280369;32;20109;-56
2023/07/31 09:52:54;;;;;;;5.62;3.20;;;16.50;99.90;;;;;;7269485;32;20120;-57
2023/07/31 09:56:56;;;;;;;4.60;3.17;;;16.50;99.90;;;;;;7282268;32;20203;-57
2023/07/31 10:00:59;;;;;;;5.72;3.30;;;16.50;99.90;;;;;;7282109;32;20107;-56
2023/07/31 10:05:03;;;;;;;6.93;3.60;;;16.60;99.90;;;;;;7260871;32;20212;-56
2023/07/31 10:09:07;;;;;;;5.80;3.20;;;16.50;99.90;;;;;;7278652;32;20198;-57
2023/07/31 10:13:10;;;;;;;9.27;4.05;;;16.60;99.90;;;;;;7280200;32;20199;-56
2023/07/31 10:17:13;;;;;;;7.25;3.33;;;16.60;99.90;;;;;;7280124;32;20165;-57
2023/07/31 10:21:15;;;;;;;7.62;3.72;;;16.60;99.90;;;;;;7275970;32;20199;-56
2023/07/31 10:25:19;;;;;;;5.50;3.40;;;16.60;99.90;;;;;;7280978;32;20180;-56
2023/07/31 10:29:24;;;;;;;6.47;3.30;;;16.60;99.90;;;;;;7276047;32;20199;-56
2023/07/31 10:33:26;;;;;;;7.22;3.67;;;16.60;99.90;;;;;;7284369;32;20205;-56
2023/07/31 10:37:42;;;;;;;5.90;3.50;;;16.60;99.90;;;;;;7291706;32;20108;-56
2023/07/31 10:41:43;;;;;;;7.85;3.58;;;16.70;99.90;;;;;;7279221;32;20223;-55
2023/07/31 10:45:47;;;;;;;7.65;3.95;;;16.80;99.90;;;;;;7282359;32;20238;-55
2023/07/31 10:49:49;;;;;;;7.20;3.92;;;16.90;99.90;;;;;;7292617;32;20176;-58
2023/07/31 10:54:10;;;;;;;7.20;3.83;;;17.00;99.90;;;;;;7282496;32;20208;-58
2023/07/31 10:58:13;;;;;;;7.03;3.58;;;17.10;99.90;;;;;;7279195;32;20116;-56
2023/07/31 11:02:30;;;;;;;6.15;3.78;;;17.20;99.90;;;;;;7283407;32;20134;-56
2023/07/31 11:06:32;;;;;;;6.85;3.53;;;17.30;99.90;;;;;;7287671;32;20171;-57
2023/07/31 11:10:34;;;;;;;8.18;3.15;;;17.20;99.90;;;;;;7288471;32;20379;-56
2023/07/31 11:14:35;;;;;;;7.20;3.08;;;17.10;99.90;;;;;;7289287;32;20320;-58
2023/07/31 11:18:40;;;;;;;6.75;3.05;;;17.10;99.90;;;;;;7289209;32;20132;-58
2023/07/31 11:22:43;;;;;;;5.75;3.03;;;17.20;99.90;;;;;;7299885;32;20167;-57
2023/07/31 11:26:53;;;;;;;4.32;2.92;;;17.20;99.90;;;;;;7291384;32;20112;-57
2023/07/31 11:30:56;;;;;;;6.12;2.60;;;17.20;99.90;;;;;;7292000;32;20176;-57
2023/07/31 11:34:57;;;;;;;5.93;2.62;;;17.30;99.90;;;;;;7293013;32;20139;-57
2023/07/31 11:39:09;;;;;;;4.18;2.40;;;17.30;99.90;;;;;;7295647;32;20227;-57
2023/07/31 11:43:16;;;;;;;4.55;2.30;;;17.40;99.90;;;;;;7293031;32;20164;-57
2023/07/31 11:47:17;;;;;;;3.42;2.15;;;17.50;99.90;;;;;;7285530;32;20112;-57
2023/07/31 11:51:21;;;;;;;3.67;2.05;;;17.50;99.90;;;;;;7287034;32;20648;-57
2023/07/31 11:55:23;;;;;;;3.80;2.05;;;17.60;99.90;;;;;;7283380;32;20117;-58
2023/07/31 11:59:25;;;;;;;3.37;1.92;;;17.60;99.90;;;;;;7288688;32;20115;-58
2023/07/31 12:03:27;;;;;;;3.22;1.98;;;17.50;99.90;;;;;;7282822;32;20192;-57
2023/07/31 12:07:47;;;;;;;4.18;1.67;;;17.60;99.90;;;;;;7282740;32;20134;-57
2023/07/31 12:11:49;;;;;;;3.37;2.17;;;17.60;99.90;;;;;;7279957;32;20100;-58
2023/07/31 12:15:59;;;;;;;4.68;1.83;;;17.60;99.90;;;;;;7279474;32;20419;-59
2023/07/31 12:20:04;;;;;;;5.25;2.12;;;17.50;99.90;;;;;;7279037;32;20134;-58
2023/07/31 12:24:06;;;;;;;4.75;2.00;;;17.60;99.90;;;;;;7284335;32;20278;-57
2023/07/31 12:28:11;;;;;;;5.15;2.03;;;17.60;99.90;;;;;;7281337;32;20159;-58
2023/07/31 12:32:24;;;;;;;3.00;1.70;;;17.60;99.90;;;;;;7280558;32;20130;-58
2023/07/31 12:36:27;;;;;;;3.20;1.92;;;17.60;99.90;;;;;;7280634;32;20636;-58
2023/07/31 12:40:29;;;;;;;3.00;1.95;;;17.60;99.90;;;;;;7294285;32;20559;-58
2023/07/31 12:44:34;;;;;;;4.97;1.80;;;17.70;99.90;;;;;;7268991;32;20108;-57
2023/07/31 12:48:37;;;;;;;3.28;1.80;;;17.80;99.90;;;;;;7277303;32;20181;-57
2023/07/31 12:52:38;;;;;;;5.25;1.80;;;17.70;99.90;;;;;;7290928;32;20123;-56
2023/07/31 12:56:40;;;;;;;4.20;2.00;;;17.70;99.90;;;;;;7290489;32;20600;-56
2023/07/31 13:00:42;;;;;;;4.22;2.05;;;17.70;99.90;;;;;;7287726;32;20175;-56
2023/07/31 13:04:44;;;;;;;4.85;2.08;;;17.70;99.90;;;;;;7281804;32;20142;-57
2023/07/31 13:08:46;;;;;;;6.50;2.42;;;17.70;99.90;;;;;;7286094;32;20154;-57
2023/07/31 13:12:47;;;;;;;4.07;2.33;;;17.80;99.90;;;;;;7291751;32;20675;-57
2023/07/31 13:16:49;;;;;;;4.03;2.10;;;17.80;99.90;;;;;;7292048;32;20111;-57
2023/07/31 13:20:51;;;;;;;8.38;2.92;;;17.70;99.90;;;;;;7296693;32;20293;-57
2023/07/31 13:24:53;;;;;;;5.55;2.35;;;17.80;99.90;;;;;;7290883;32;20232;-58
2023/07/31 13:28:54;;;;;;;5.22;3.05;;;17.80;99.90;;;;;;7283725;32;20217;-57
2023/07/31 13:32:56;;;;;;;3.78;2.50;;;17.90;99.90;;;;;;7298049;32;20131;-54
2023/07/31 13:36:58;;;;;;;5.18;2.62;;;17.90;99.90;;;;;;7293102;32;20124;-56
2023/07/31 13:41:00;;;;;;;6.28;2.75;;;18.10;99.90;;;;;;7293203;32;20514;-55
2023/07/31 13:45:01;;;;;;;6.28;2.87;;;18.20;99.90;;;;;;7293080;32;20120;-54
2023/07/31 13:49:07;;;;;;;6.53;3.15;;;18.30;99.90;;;;;;7292483;32;20108;-55
2023/07/31 13:53:09;;;;;;;7.57;2.60;;;18.50;99.90;;;;;;7289073;32;20124;-54
2023/07/31 13:57:11;;;;;;;4.35;2.72;;;18.60;99.90;;;;;;7278630;32;20108;-55
2023/07/31 14:01:13;;;;;;;9.20;3.58;;;18.70;99.90;;;;;;7287006;32;20182;-55
2023/07/31 14:05:14;;;;;;;3.87;2.70;;;18.80;99.90;;;;;;7284095;32;20249;-58
2023/07/31 14:09:17;;;;;;;4.97;2.80;;;19.00;99.90;;;;;;7278100;32;20737;-58
2023/07/31 14:13:19;;;;;;;5.05;2.67;;;18.80;99.90;;;;;;7284166;32;20218;-58
2023/07/31 14:17:21;;;;;;;5.30;2.80;;;18.70;99.90;;;;;;7282908;32;20191;-57
2023/07/31 14:21:22;;;;;;;7.45;2.70;;;18.70;99.90;;;;;;7290874;32;20131;-58
2023/07/31 14:25:25;;;;;;;4.75;2.97;;;18.70;99.90;;;;;;7279248;32;20694;-54
2023/07/31 14:29:27;;;;;;;4.95;2.60;;;18.70;99.90;;;;;;7289025;32;20187;-53
2023/07/31 14:33:29;;;;;;;5.40;2.53;;;18.60;99.90;;;;;;7286935;32;20191;-53
2023/07/31 14:37:38;;;;;;;3.87;2.30;;;18.60;99.90;;;;;;7299581;32;20253;-52
2023/07/31 14:41:40;;;;;;;5.18;2.25;;;18.60;99.90;;;;;;7282121;32;20116;-55
2023/07/31 14:45:41;;;;;;;5.62;3.00;;;18.50;99.90;;;;;;7282722;32;20160;-55
2023/07/31 14:49:43;;;;;;;5.65;2.85;;;18.40;99.90;;;;;;7282142;32;20642;-53
2023/07/31 14:53:46;;;;;;;4.82;2.97;;;18.40;99.90;;;;;;7283012;32;20495;-54
2023/07/31 14:57:48;;;;;;;6.07;2.70;;;18.30;99.90;;;;;;7285704;32;20124;-56
2023/07/31 15:01:50;;;;;;;7.90;3.30;;;18.20;99.90;;;;;;7295287;32;20108;-55
2023/07/31 15:05:52;;;;;;;5.62;3.37;;;18.20;99.90;;;;;;7281921;32;20134;-55
2023/07/31 15:09:53;;;;;;;5.72;3.42;;;18.30;99.90;;;;;;7283279;32;20514;-57
2023/07/31 15:13:55;;;;;;;5.07;3.33;;;18.40;99.90;;;;;;7297820;32;20108;-56
2023/07/31 15:17:57;;;;;;;6.95;3.62;;;18.40;99.90;;;;;;7293725;32;20246;-57
2023/07/31 15:21:59;;;;;;;7.97;3.65;;;18.50;99.90;;;;;;7295584;32;20120;-56
2023/07/31 15:26:01;;;;;;;4.75;3.35;;;18.50;99.90;;;;;;7292059;32;20234;-56
2023/07/31 15:30:04;;;;;;;6.70;3.50;;;18.60;99.90;;;;;;7284379;32;20170;-56
2023/07/31 15:34:07;;;;;;;6.68;3.37;;;18.60;99.90;;;;;;7285902;32;20130;-56
2023/07/31 15:38:09;;;;;;;5.00;3.33;;;18.60;99.90;;;;;;7291111;32;20242;-56
2023/07/31 15:42:10;;;;;;;5.85;3.58;;;18.70;99.90;;;;;;7285062;32;20143;-56
2023/07/31 15:46:13;;;;;;;7.10;2.90;;;18.60;99.90;;;;;;7283411;32;20194;-56
2023/07/31 15:50:15;;;;;;;7.05;2.92;;;18.60;99.90;;;;;;7286277;32;20134;-56
2023/07/31 15:54:18;;;;;;;4.45;3.40;;;18.60;99.90;;;;;;7289793;32;20887;-56
2023/07/31 15:58:19;;;;;;;5.65;3.20;;;18.60;99.90;;;;;;7303435;32;20130;-57
2023/07/31 16:02:21;;;;;;;5.32;3.30;;;18.50;99.90;;;;;;7289248;32;20535;-56
2023/07/31 16:06:23;;;;;;;4.60;2.90;;;18.30;99.90;;;;;;7288157;32;20503;-56
2023/07/31 16:10:25;;;;;;;5.55;3.53;;;18.20;99.90;;;;;;7284033;32;20112;-57
2023/07/31 16:14:27;;;;;;;5.70;3.85;;;18.10;99.90;;;;;;7288095;32;20217;-57
2023/07/31 16:18:29;;;;;;;5.80;3.33;;;18.00;99.90;;;;;;7289816;32;20215;-57
2023/07/31 16:22:30;;;;;;;4.95;2.60;;;17.90;99.90;;;;;;7283346;32;20158;-57
2023/07/31 16:26:33;;;;;;;5.80;3.30;;;17.80;99.90;;;;;;7281772;32;20165;-57
2023/07/31 16:30:35;;;;;;;5.70;3.12;;;17.90;99.90;;;;;;7287252;32;20184;-57
2023/07/31 16:34:37;;;;;;;5.15;3.40;;;17.80;99.90;;;;;;7284383;32;20207;-56
2023/07/31 16:38:39;;;;;;;6.35;2.95;;;17.80;99.90;;;;;;7285118;32;20143;-57
2023/07/31 16:42:40;;;;;;;3.30;2.40;;;17.80;99.90;;;;;;7282434;32;20104;-56
2023/07/31 16:46:42;;;;;;;4.80;2.87;;;17.70;99.90;;;;;;7281714;32;20124;-56
2023/07/31 16:50:44;;;;;;;3.20;2.42;;;17.60;99.90;;;;;;7280602;32;20123;-57
2023/07/31 16:54:46;;;;;;;4.28;2.65;;;17.60;99.90;;;;;;7282704;32;20207;-53
2023/07/31 16:58:48;;;;;;;4.97;2.45;;;17.50;99.90;;;;;;7283119;32;20132;-53
2023/07/31 17:02:50;;;;;;;3.90;2.33;;;17.60;99.90;;;;;;7281345;32;20175;-57
2023/07/31 17:06:52;;;;;;;3.35;2.78;;;17.50;99.90;;;;;;7284296;32;20112;-57
2023/07/31 17:10:54;;;;;;;5.05;2.72;;;17.50;99.90;;;;;;7281525;32;20111;-56
2023/07/31 17:14:55;;;;;;;4.35;2.30;;;17.40;99.90;;;;;;7286596;32;20217;-56
2023/07/31 17:18:57;;;;;;;5.15;2.20;;;17.40;99.90;;;;;;7280132;32;20698;-56
2023/07/31 17:22:59;;;;;;;4.32;2.22;;;17.30;99.90;;;;;;7285308;32;20147;-56
2023/07/31 17:27:01;;;;;;;4.12;2.10;;;17.30;99.90;;;;;;7282872;32;20541;-57
2023/07/31 17:31:03;;;;;;;3.87;1.98;;;17.30;99.90;;;;;;7284408;32;20166;-57
2023/07/31 17:35:04;;;;;;;2.65;1.98;;;17.20;99.90;;;;;;7283998;32;20130;-57
2023/07/31 17:39:06;;;;;;;4.22;2.17;;;17.20;99.90;;;;;;7287679;32;20775;-56
2023/07/31 17:43:08;;;;;;;4.87;2.62;;;17.10;99.90;;;;;;7284890;32;20132;-56
2023/07/31 17:47:10;;;;;;;3.50;2.00;;;17.00;99.90;;;;;;7284840;32;20180;-56
2023/07/31 17:51:11;;;;;;;4.12;2.40;;;16.90;99.90;;;;;;7281518;32;20579;-58
2023/07/31 17:55:13;;;;;;;7.03;5.05;;;16.80;99.90;;;;;;7276701;32;20262;-57
2023/07/31 17:59:15;;;;;;;3.75;2.45;;;16.80;99.90;;;;;;7286661;32;20116;-57
2023/07/31 18:03:16;;;;;;;3.28;2.45;;;16.80;99.90;;;;;;7282764;32;20131;-57
2023/07/31 18:07:18;;;;;;;4.65;2.50;;;16.70;99.90;;;;;;7285503;32;20519;-56
2023/07/31 18:11:21;;;;;;;6.57;2.70;;;16.70;99.90;;;;;;7278289;32;20655;-56
2023/07/31 18:15:22;;;;;;;6.97;3.10;;;16.70;99.90;;;;;;7286008;32;20109;-57
2023/07/31 18:19:24;;;;;;;4.90;2.70;;;16.70;99.90;;;;;;7284469;32;20803;-56
2023/07/31 18:23:26;;;;;;;7.07;2.95;;;16.70;99.90;;;;;;7286360;32;20108;-56
2023/07/31 18:27:27;;;;;;;5.85;2.35;;;16.70;99.90;;;;;;7292434;32;20121;-56
2023/07/31 18:31:29;;;;;;;5.00;2.28;;;16.70;99.90;;;;;;7285476;32;20743;-56
2023/07/31 18:35:31;;;;;;;4.00;2.10;;;16.60;99.90;;;;;;7281799;32;20777;-56
2023/07/31 18:39:33;;;;;;;5.78;2.10;;;16.60;99.90;;;;;;7282218;32;20142;-56
2023/07/31 18:43:35;;;;;;;3.33;1.98;;;16.60;99.90;;;;;;7287764;32;20247;-56
2023/07/31 18:47:37;;;;;;;8.20;2.55;;;16.60;99.90;;;;;;7285990;32;20096;-56
2023/07/31 18:51:38;;;;;;;5.45;2.10;;;16.60;99.90;;;;;;7282265;32;20615;-57
2023/07/31 18:55:43;;;;;;;6.30;2.10;;;16.60;99.90;;;;;;7284458;32;20218;-56
2023/07/31 18:59:45;;;;;;;3.55;1.80;;;16.60;99.90;;;;;;7283336;32;20180;-56
2023/07/31 19:03:47;;;;;;;6.68;1.98;;;16.60;99.90;;;;;;7287469;32;20256;-56
2023/07/31 19:07:49;;;;;;;4.43;1.98;;;16.60;99.90;;;;;;7289602;32;20597;-57
2023/07/31 19:11:51;;;;;;;5.55;2.55;;;16.50;99.90;;;;;;7288938;32;20197;-57
2023/07/31 19:15:53;;;;;;;2.50;1.40;;;16.50;99.90;;;;;;7288109;32;20203;-57
2023/07/31 19:19:55;;;;;;;4.75;1.83;;;16.50;99.90;;;;;;7280960;32;20496;-57
2023/07/31 19:23:57;;;;;;;2.28;1.45;;;16.40;99.90;;;;;;7283725;32;20230;-57
2023/07/31 19:27:59;;;;;;;2.53;1.55;;;16.40;99.90;;;;;;7282583;32;20147;-57
2023/07/31 19:32:01;;;;;;;2.80;1.12;;;16.40;99.90;;;;;;7280767;32;20152;-59
2023/07/31 19:36:03;;;;;;;2.72;1.37;;;16.50;99.90;;;;;;7285704;32;20315;-56
2023/07/31 19:40:06;;;;;;;1.95;1.12;;;16.50;99.90;;;;;;7284141;32;20131;-57
2023/07/31 19:44:07;;;;;;;3.00;1.60;;;16.50;99.90;;;;;;7295079;32;20626;-56
2023/07/31 19:48:10;;;;;;;2.60;1.33;;;16.50;99.90;;;;;;7288728;32;20185;-57
2023/07/31 19:52:12;;;;;;;3.72;1.50;;;16.50;99.90;;;;;;7291244;32;20154;-57
2023/07/31 19:56:14;;;;;;;2.00;1.30;;;16.50;99.90;;;;;;7281068;32;20111;-57
2023/07/31 20:00:16;;;;;;;3.25;1.35;;;16.50;99.90;;;;;;7289704;32;20600;-56
2023/07/31 20:04:18;;;;;;;6.53;1.52;;;16.60;99.90;;;;;;7285910;32;20861;-55
2023/07/31 20:08:19;;;;;;;5.50;1.40;;;16.50;99.90;;;;;;7279979;32;20120;-56
2023/07/31 20:12:22;;;;;;;3.20;1.40;;;16.50;99.90;;;;;;7283021;32;20143;-57
2023/07/31 20:16:24;;;;;;;3.60;1.42;;;16.50;99.90;;;;;;7293266;32;20598;-57
2023/07/31 20:20:25;;;;;;;2.03;1.20;;;16.50;99.90;;;;;;7283134;32;20219;-56
2023/07/31 20:24:27;;;;;;;2.40;1.30;;;16.50;99.90;;;;;;7286184;32;20274;-57
2023/07/31 20:28:29;;;;;;;3.42;1.20;;;16.50;99.90;;;;;;7285161;32;20481;-57
2023/07/31 20:32:31;;;;;;;4.55;1.20;;;16.60;99.90;;;;;;7277261;32;20658;-57
2023/07/31 20:36:35;;;;;;;2.22;1.20;;;16.60;99.90;;;;;;7287468;32;20118;-57
2023/07/31 20:40:36;;;;;;;2.03;0.88;;;16.60;99.90;;;;;;7287146;32;20093;-56
2023/07/31 20:44:38;;;;;;;4.22;1.00;;;16.60;99.90;;;;;;7280985;32;20207;-58
2023/07/31 20:48:40;;;;;;;1.98;0.98;;;16.50;99.90;;;;;;7279792;32;20198;-57
2023/07/31 20:52:42;;;;;;;2.25;1.30;;;16.60;99.90;;;;;;7296234;32;20126;-57
2023/07/31 20:57:33;;;;;;;2.75;0.90;;;16.60;99.90;;;;;;7398176;31;20094;-56